• Join FlightAware (Why Join?)
  • Login
  • US Flag 
10:51PM EDT


 

Airport Tracker/Info


-or-


 

Live Flight TrackerFlight Track Log ✈ N508QS ✈ 24-Sep-2013 ✈ KTTN - KALB

Flight Track Log - Related Links

Times and Time Zones

All times are in EDT time to prevent confusion due to time zone crossing. See the N508QS flight status page for this flight to view local times or setup timezone preferences in your user account.

Time Position Orientation Groundspeed Altitude Reporting Facility
EDT Latitude Longitude Course Direction KTS MPH feet Rate Location/Type
02:48PM 40.3333 -74.8500 333° Northwest 202 232 2,400  Level Philadelphia TRACON
02:49PM 40.3667 -74.9000 311° West 202 232 3,100 360 Climbing Philadelphia TRACON
02:50PM 40.3333 -74.9667 237° Southwest 262 302 3,100  Level Philadelphia TRACON
02:51PM 40.2833 -75.0500 232° Southwest 259 298 3,100 1,260 Level Philadelphia TRACON
02:52PM 40.2167 -75.1167 217° Southwest 273 314 5,900 2,820 Climbing Philadelphia TRACON
02:53PM 40.1667 -75.2000 232° Southwest 296 341 9,100 2,160 Climbing Philadelphia TRACON
02:55PM 40.1275 -75.3344 249° West 305 351 11,100 1,440 Climbing New York Center
02:56PM 40.1150 -75.4394 261° West 300 345 12,600 960 Climbing New York Center
02:57PM 40.1806 -75.5172 318° Northwest 279 321 13,100 780 Climbing New York Center
02:58PM 40.2481 -75.6006 317° Northwest 314 361 14,200 1,320 Climbing New York Center
02:59PM 40.3167 -75.7033 311° West 350 403 15,800 900 Climbing New York Center
03:00PM 40.3931 -75.8206 311° West 373 429 16,000 60 Climbing New York Center
03:01PM 40.4817 -75.8925 328° Northwest 372 428 16,000 240 Level New York Center
03:02PM 40.5886 -75.8814 North 366 421 16,600 480 Climbing New York Center
03:03PM 40.6861 -75.8422 17° North 371 427 17,000 180 Climbing New York Center
03:04PM 40.7903 -75.7950 19° North 383 441 17,000  Level New York Center
03:05PM 40.9050 -75.7378 21° North 395 455 17,000  Level New York Center
03:06PM 40.9981 -75.6564 33° Northeast 403 464 17,000  Level New York Center
03:07PM 41.0822 -75.5856 32° Northeast 403 464 17,100  Climbing New York Center
03:08PM 41.1983 -75.5469 14° North 388 447 17,100 -60 Level New York Center
03:09PM 41.3056 -75.5214 10° North 388 447 17,000 -60 Descending New York Center
03:10PM 41.4150 -75.4958 10° North 393 452 17,000 -60 Level New York Center
03:11PM 41.5736 -75.4094 22° Northeast 406 467 16,900 -60 Descending Boston Center
03:12PM 41.6714 -75.3389 28° Northeast 401 461 16,900  Level Boston Center
03:13PM 41.7669 -75.2681 29° Northeast 396 456 16,900  Level Boston Center
03:14PM 41.8625 -75.1972 29° Northeast 396 456 16,900  Level Boston Center
03:15PM 41.9664 -75.1178 30° Northeast 385 443 16,900  Level Boston Center
03:16PM 42.0597 -75.0492 29° Northeast 385 443 16,900 -780 Level Boston Center
03:17PM 42.1553 -74.9775 29° Northeast 385 443 15,400 -1,500 Descending Boston Center
03:18PM 42.2242 -74.8708 49° Northeast 374 430 14,000 -1,560 Descending Boston Center
03:19PM 42.2853 -74.7497 56° Northeast 374 430 12,400 -1,560 Descending Boston Center
03:20PM 42.3158 -74.6836 58° Northeast 385 443 11,700 -1,200 Descending Boston Center
03:20PM 42.3417 -74.6283 58° Northeast 384 442 11,200 -960 Descending Boston Center
03:21PM 42.3569 -74.6036 50° Northeast 375 432 11,000 -120 Descending Boston Center
03:21PM 42.3939 -74.5233 58° Northeast 379 436 11,100  Climbing Boston Center
03:22PM 42.4111 -74.4900 55° Northeast 365 420 11,000 -840 Descending Boston Center
03:22PM 42.4522 -74.3958 59° Northeast 369 425 10,300 -1,140 Descending Boston Center
03:23PM 42.4631 -74.3736 57° Northeast 349 402 9,900 -900 Descending Boston Center
03:23PM 42.4872 -74.3011 66° East 331 381 9,400 -1,200 Descending Boston Center
03:24PM 42.4961 -74.2706 68° East 281 323 8,700 -1,920 Descending Boston Center
03:24PM 42.5222 -74.1953 65° Northeast 288 331 7,600 -1,680 Descending Boston Center
03:25PM 42.5353 -74.1700 55° Northeast 277 319 7,000 -1,800 Descending Boston Center
03:25PM 42.5506 -74.1114 70° East 273 314 5,800 -1,920 Descending Boston Center
03:26PM 42.5636 -74.0778 62° Northeast 271 312 5,100 -1,620 Descending Boston Center
03:26PM 42.5856 -74.0108 66° East 273 314 4,200 -1,020 Descending Boston Center
03:27PM 42.5964 -73.9828 62° Northeast 256 295 4,000 -840 Descending Boston Center
03:27PM 42.6136 -73.9297 66° East 253 291 3,400 -960 Descending Boston Center
03:28PM 42.6289 -73.8850 65° Northeast 244 281 3,000 -420 Descending Boston Center
03:28PM 42.6375 -73.8569 67° East 241 277 3,000 -780 Level Boston Center
03:29PM 42.6483 -73.8203 68° East 185 213 2,300 -420 Descending Boston Center
03:29PM 42.6678 -73.7700 62° Northeast 230 265 2,600 -1,020 Climbing Boston Center
03:30PM 42.6881 -73.8044 309° West 139 160 1,300 8,220 Descending Boston Center
03:30PM 42.6956 -73.6944 85° East 230 265 11,000 -720 Climbing Boston Center
03:31PM 42.7236 -73.8081 289° West 119 137 600  Descending Boston Center
03:31PM 42.7214 -73.6158 91° East 230 265 11,000 6,660 Climbing Boston Center
03:32PM 42.7494 -73.5400 63° Northeast 230 265 11,000  Level Boston Center
03:33PM 42.7600 -73.5089 65° Northeast 230 265 11,000  Level Boston Center
03:34PM 42.7600 -73.5089 90° East 230 265 11,000  Level Boston Center